createdAt,value
2023-03-03T00:01:25.445Z,4.60
2023-03-03T00:04:10.602Z,4.70
2023-03-03T00:06:55.937Z,4.70
2023-03-03T00:09:41.294Z,4.80
2023-03-03T00:12:29.694Z,4.80
2023-03-03T00:15:20.318Z,5.00
2023-03-03T00:18:18.706Z,5.20
2023-03-03T00:21:12.186Z,5.30
2023-03-03T00:24:02.502Z,5.30
2023-03-03T00:26:55.959Z,5.30
2023-03-03T00:29:46.489Z,5.40
2023-03-03T00:32:46.968Z,5.30
2023-03-03T00:35:35.796Z,5.30
2023-03-03T00:38:20.957Z,5.20
2023-03-03T00:41:26.924Z,5.10
2023-03-03T00:44:44.399Z,5.00
2023-03-03T00:47:38.323Z,4.80
2023-03-03T00:50:33.366Z,4.60
2023-03-03T00:53:20.165Z,4.40
2023-03-03T00:56:05.663Z,4.40
2023-03-03T00:58:51.211Z,4.50
2023-03-03T01:01:36.590Z,4.20
2023-03-03T01:04:21.979Z,4.00
2023-03-03T01:07:07.308Z,4.30
2023-03-03T01:09:52.908Z,4.50
2023-03-03T01:12:38.734Z,4.60
2023-03-03T01:15:24.020Z,4.70
2023-03-03T01:18:11.505Z,4.80
2023-03-03T01:20:56.785Z,4.80
2023-03-03T01:23:42.265Z,4.90
2023-03-03T01:26:27.659Z,4.90
2023-03-03T01:29:12.978Z,4.80
2023-03-03T01:31:58.343Z,4.90
2023-03-03T01:34:43.567Z,4.90
2023-03-03T01:37:28.893Z,5.00
2023-03-03T01:40:21.701Z,5.10
2023-03-03T01:43:06.930Z,5.10
2023-03-03T01:45:53.218Z,5.10
2023-03-03T01:48:42.620Z,5.10
2023-03-03T01:51:33.609Z,5.00
2023-03-03T01:54:25.290Z,5.00
2023-03-03T01:57:16.139Z,5.00
2023-03-03T02:00:05.031Z,5.00
2023-03-03T02:02:51.147Z,4.80
2023-03-03T02:05:36.979Z,4.70
2023-03-03T02:08:27.761Z,4.60
2023-03-03T02:11:13.506Z,4.60
2023-03-03T02:13:58.795Z,4.50
2023-03-03T02:16:44.404Z,4.50
2023-03-03T02:20:01.805Z,4.50
2023-03-03T02:23:10.306Z,4.60
2023-03-03T02:25:59.357Z,4.40
2023-03-03T02:28:45.096Z,4.40
2023-03-03T02:31:31.449Z,4.40
2023-03-03T02:34:17.644Z,4.50
2023-03-03T02:37:04.000Z,4.40
2023-03-03T02:39:49.331Z,4.30
2023-03-03T02:42:34.853Z,4.10
2023-03-03T02:45:20.354Z,4.20
2023-03-03T02:48:05.811Z,4.20
2023-03-03T02:50:51.439Z,4.10
2023-03-03T02:53:36.825Z,3.90
2023-03-03T02:56:22.785Z,4.10
2023-03-03T02:59:08.507Z,3.90
2023-03-03T03:01:54.133Z,3.90
2023-03-03T03:04:39.373Z,3.90
2023-03-03T03:07:24.584Z,4.00
2023-03-03T03:10:11.176Z,4.00
2023-03-03T03:12:56.215Z,4.00
2023-03-03T03:15:41.721Z,3.90
2023-03-03T03:18:27.819Z,3.90
2023-03-03T03:21:14.113Z,3.90
2023-03-03T03:23:59.627Z,3.90
2023-03-03T03:26:45.111Z,3.90
2023-03-03T03:29:30.454Z,4.00
2023-03-03T03:32:15.977Z,4.10
2023-03-03T03:35:01.281Z,4.10
2023-03-03T03:37:46.761Z,4.20
2023-03-03T03:40:32.117Z,4.00
2023-03-03T03:43:17.567Z,3.90
2023-03-03T03:46:03.035Z,3.90
2023-03-03T03:48:48.395Z,4.10
2023-03-03T03:51:35.546Z,4.20
2023-03-03T03:54:20.700Z,4.20
2023-03-03T03:57:06.264Z,4.30
2023-03-03T03:59:51.725Z,4.20
2023-03-03T04:02:37.666Z,4.20
2023-03-03T04:05:23.369Z,4.20
2023-03-03T04:08:09.764Z,4.20
2023-03-03T04:10:55.238Z,4.20
2023-03-03T04:13:40.542Z,4.20
2023-03-03T04:16:25.958Z,4.20
2023-03-03T04:19:11.399Z,4.20
2023-03-03T04:21:56.718Z,4.10
2023-03-03T04:24:42.198Z,4.00
2023-03-03T04:27:27.635Z,4.00
2023-03-03T04:30:15.400Z,3.80
2023-03-03T04:33:00.419Z,3.40
2023-03-03T04:35:45.966Z,3.40
2023-03-03T04:38:31.447Z,3.40
2023-03-03T04:41:17.120Z,3.20
2023-03-03T04:44:02.441Z,3.20
2023-03-03T04:46:47.882Z,3.40
2023-03-03T04:49:33.334Z,3.30
2023-03-03T04:52:18.722Z,3.40
2023-03-03T04:55:04.945Z,3.40
2023-03-03T04:57:49.997Z,3.00
2023-03-03T05:00:35.682Z,3.10
2023-03-03T05:03:21.788Z,3.00
2023-03-03T05:06:07.744Z,3.10
2023-03-03T05:08:53.024Z,3.30
2023-03-03T05:11:38.866Z,3.30
2023-03-03T05:14:24.307Z,3.40
2023-03-03T05:17:09.714Z,3.30
2023-03-03T05:19:57.253Z,3.10
2023-03-03T05:22:43.057Z,3.30
2023-03-03T05:25:28.541Z,3.40
2023-03-03T05:28:14.581Z,3.50
2023-03-03T05:30:59.760Z,3.60
2023-03-03T05:33:45.013Z,3.60
2023-03-03T05:36:30.571Z,3.50
2023-03-03T05:39:16.144Z,3.60
2023-03-03T05:42:01.554Z,3.60
2023-03-03T05:44:47.003Z,3.70
2023-03-03T05:47:32.373Z,3.70
2023-03-03T05:50:22.680Z,3.70
2023-03-03T05:53:07.930Z,3.70
2023-03-03T05:55:53.317Z,3.70
2023-03-03T05:58:38.595Z,3.60
2023-03-03T06:01:23.893Z,3.50
2023-03-03T06:04:09.776Z,3.50
2023-03-03T06:06:54.999Z,3.50
2023-03-03T06:09:40.450Z,3.40
2023-03-03T06:12:25.907Z,3.50
2023-03-03T06:15:11.607Z,3.40
2023-03-03T06:17:56.723Z,3.40
2023-03-03T06:20:42.030Z,3.30
2023-03-03T06:23:27.514Z,3.20
2023-03-03T06:26:12.690Z,3.10
2023-03-03T06:28:58.096Z,3.00
2023-03-03T06:31:44.034Z,2.90
2023-03-03T06:34:29.321Z,2.80
2023-03-03T06:37:14.758Z,2.60
2023-03-03T06:40:00.603Z,2.50
2023-03-03T06:42:46.286Z,2.40
2023-03-03T06:45:31.713Z,2.40
2023-03-03T06:48:17.055Z,2.40
2023-03-03T06:51:09.382Z,2.40
2023-03-03T06:53:56.832Z,2.40
2023-03-03T06:56:43.688Z,2.20
2023-03-03T06:59:29.103Z,2.40
2023-03-03T07:02:17.333Z,2.60
2023-03-03T07:05:06.298Z,2.80
2023-03-03T07:07:51.877Z,2.80
2023-03-03T07:10:36.932Z,2.70
2023-03-03T07:13:24.394Z,2.60
2023-03-03T07:16:12.785Z,2.30
2023-03-03T07:19:01.562Z,2.10
2023-03-03T07:21:46.948Z,2.20
2023-03-03T07:24:33.169Z,2.20
2023-03-03T07:27:31.711Z,2.10
2023-03-03T07:30:27.988Z,2.20
2023-03-03T07:33:27.619Z,2.20
2023-03-03T07:36:27.728Z,2.30
2023-03-03T07:39:26.106Z,2.40
2023-03-03T07:42:27.815Z,2.50
2023-03-03T07:45:27.757Z,2.50
2023-03-03T07:48:13.082Z,2.40
2023-03-03T07:51:04.946Z,2.50
2023-03-03T07:53:50.368Z,2.60
2023-03-03T07:56:36.574Z,2.80
2023-03-03T07:59:25.789Z,2.90
2023-03-03T08:02:27.713Z,2.90
2023-03-03T08:05:34.770Z,2.90
2023-03-03T08:08:31.059Z,2.90
2023-03-03T08:11:16.169Z,3.00
2023-03-03T08:14:01.825Z,3.10
2023-03-03T08:16:46.997Z,2.90
2023-03-03T08:19:33.988Z,3.20
2023-03-03T08:22:30.340Z,3.20
2023-03-03T08:25:15.691Z,3.20
2023-03-03T08:28:02.083Z,3.40
2023-03-03T08:30:48.834Z,3.50
2023-03-03T08:33:34.496Z,3.60
2023-03-03T08:36:19.700Z,3.60
2023-03-03T08:39:05.374Z,3.60
2023-03-03T08:41:50.469Z,3.80
2023-03-03T08:44:35.824Z,4.00
2023-03-03T08:47:21.423Z,4.10
2023-03-03T08:50:06.823Z,4.20
2023-03-03T08:52:52.305Z,4.30
2023-03-03T08:55:37.577Z,4.40
2023-03-03T08:58:33.458Z,4.30
2023-03-03T09:01:20.167Z,4.40
2023-03-03T09:04:05.527Z,4.60
2023-03-03T09:06:50.814Z,4.90
2023-03-03T09:09:37.388Z,5.00
2023-03-03T09:12:38.144Z,5.20
2023-03-03T09:15:28.977Z,5.30
2023-03-03T09:18:23.173Z,5.50
2023-03-03T09:21:22.469Z,5.80
2023-03-03T09:24:36.165Z,6.00
2023-03-03T09:27:30.455Z,6.10
2023-03-03T09:30:45.952Z,6.30
2023-03-03T09:33:42.363Z,6.40
2023-03-03T09:36:37.490Z,6.60
2023-03-03T09:39:31.149Z,6.80
2023-03-03T09:42:52.833Z,6.90
2023-03-03T09:46:01.981Z,7.00
2023-03-03T09:49:27.960Z,7.10
2023-03-03T09:52:40.510Z,7.00
2023-03-03T09:55:59.238Z,6.90
2023-03-03T09:59:12.461Z,6.60
2023-03-03T10:02:20.197Z,6.50
2023-03-03T10:05:53.074Z,6.50
2023-03-03T10:08:44.538Z,6.70
2023-03-03T10:11:46.854Z,6.90
2023-03-03T10:14:43.888Z,6.90
2023-03-03T10:17:53.206Z,7.10
2023-03-03T10:20:53.753Z,7.30
2023-03-03T10:23:48.563Z,7.40
2023-03-03T10:27:13.915Z,7.50
2023-03-03T10:30:20.143Z,7.40
2023-03-03T10:33:09.863Z,7.40
2023-03-03T10:36:20.085Z,7.70
2023-03-03T10:39:48.361Z,8.00
2023-03-03T10:43:19.732Z,8.50
2023-03-03T10:46:29.286Z,8.70
2023-03-03T10:49:26.418Z,8.90
2023-03-03T10:52:22.327Z,9.20
2023-03-03T10:55:28.901Z,9.30
2023-03-03T10:58:30.377Z,9.40
2023-03-03T11:01:45.151Z,9.90
2023-03-03T11:05:19.115Z,10.00
2023-03-03T11:08:14.098Z,10.40
2023-03-03T11:11:26.841Z,10.50
2023-03-03T11:14:33.695Z,10.80
2023-03-03T11:17:43.311Z,10.70
2023-03-03T11:20:51.524Z,11.00
2023-03-03T11:23:52.351Z,11.40
2023-03-03T11:26:49.473Z,11.60
2023-03-03T11:29:44.706Z,11.60
2023-03-03T11:32:58.065Z,11.70
2023-03-03T11:36:08.907Z,11.90
2023-03-03T11:39:01.788Z,12.00
2023-03-03T11:41:54.348Z,11.90
2023-03-03T11:45:05.588Z,11.90
2023-03-03T11:48:03.520Z,12.10
2023-03-03T11:50:58.860Z,11.90
2023-03-03T11:53:48.406Z,12.00
2023-03-03T11:56:45.989Z,12.00
2023-03-03T11:59:34.600Z,12.10
2023-03-03T12:02:28.772Z,11.90
2023-03-03T12:05:25.764Z,11.80
2023-03-03T12:08:56.801Z,12.00
2023-03-03T12:12:07.161Z,12.20
2023-03-03T12:15:03.776Z,12.60
2023-03-03T12:18:14.891Z,12.70
2023-03-03T12:21:13.097Z,12.80
2023-03-03T12:24:03.715Z,12.70
2023-03-03T12:27:06.607Z,12.70
2023-03-03T12:30:20.345Z,12.50
2023-03-03T12:33:23.400Z,12.70
2023-03-03T12:36:21.577Z,12.70
2023-03-03T12:39:13.673Z,12.70
2023-03-03T12:42:12.183Z,12.80
2023-03-03T12:45:34.494Z,12.80
2023-03-03T12:48:42.471Z,12.50
2023-03-03T12:51:36.926Z,12.30
2023-03-03T12:54:25.329Z,12.40
2023-03-03T12:57:31.571Z,12.50
2023-03-03T13:00:45.064Z,12.50
2023-03-03T13:03:53.329Z,12.50
2023-03-03T13:07:08.179Z,12.40
2023-03-03T13:10:18.775Z,12.70
2023-03-03T13:13:15.878Z,12.80
2023-03-03T13:16:06.885Z,12.50
2023-03-03T13:19:09.680Z,12.70
2023-03-03T13:22:29.992Z,12.70
2023-03-03T13:25:29.502Z,12.70
2023-03-03T13:28:36.790Z,12.20
2023-03-03T13:31:25.228Z,12.40
2023-03-03T13:34:39.498Z,12.20
2023-03-03T13:37:32.162Z,12.20
2023-03-03T13:40:19.137Z,12.20
2023-03-03T13:43:18.710Z,12.30
2023-03-03T13:46:14.661Z,12.50
2023-03-03T13:49:19.146Z,12.70
2023-03-03T13:52:28.049Z,12.80
2023-03-03T13:55:16.265Z,12.70
2023-03-03T13:58:36.817Z,12.80
2023-03-03T14:01:48.434Z,12.80
2023-03-03T14:04:39.879Z,13.00
2023-03-03T14:07:34.540Z,13.00
2023-03-03T14:10:28.056Z,13.00
2023-03-03T14:13:25.082Z,12.90
2023-03-03T14:16:38.794Z,13.00
2023-03-03T14:20:17.019Z,13.00
2023-03-03T14:23:10.136Z,13.20
2023-03-03T14:26:04.532Z,13.20
2023-03-03T14:28:52.574Z,13.30
2023-03-03T14:31:43.499Z,13.50
2023-03-03T14:34:38.509Z,13.10
2023-03-03T14:37:30.369Z,13.40
2023-03-03T14:40:18.586Z,13.60
2023-03-03T14:43:33.971Z,13.60
2023-03-03T14:46:41.764Z,13.50
2023-03-03T14:49:35.093Z,13.30
2023-03-03T14:52:33.100Z,13.50
2023-03-03T14:55:35.692Z,13.20
2023-03-03T14:58:30.688Z,13.10
2023-03-03T15:01:32.357Z,13.10
2023-03-03T15:04:17.498Z,13.10
2023-03-03T15:07:25.973Z,12.90
2023-03-03T15:10:13.441Z,12.90
2023-03-03T15:12:59.471Z,13.00
2023-03-03T15:16:00.634Z,12.90
2023-03-03T15:19:01.221Z,12.70
2023-03-03T15:22:21.367Z,12.60
2023-03-03T15:25:24.146Z,12.70
2023-03-03T15:28:16.444Z,12.60
2023-03-03T15:31:13.530Z,12.70
2023-03-03T15:34:05.862Z,12.70
2023-03-03T15:37:23.698Z,12.60
2023-03-03T15:40:21.005Z,12.80
2023-03-03T15:43:28.240Z,12.70
2023-03-03T15:46:28.927Z,12.50
2023-03-03T15:49:29.865Z,12.30
2023-03-03T15:52:34.450Z,11.60
2023-03-03T15:56:08.130Z,11.10
2023-03-03T15:58:59.056Z,11.00
2023-03-03T16:01:48.862Z,11.30
2023-03-03T16:04:38.921Z,11.30
2023-03-03T16:07:54.916Z,11.40
2023-03-03T16:11:24.516Z,11.10
2023-03-03T16:14:31.328Z,10.70
2023-03-03T16:17:28.341Z,10.60
2023-03-03T16:20:23.052Z,10.50
2023-03-03T16:23:22.308Z,10.60
2023-03-03T16:26:27.371Z,10.30
2023-03-03T16:29:23.141Z,9.90
2023-03-03T16:32:23.545Z,9.70
2023-03-03T16:35:22.785Z,9.60
2023-03-03T16:38:21.308Z,9.40
2023-03-03T16:41:19.450Z,9.20
2023-03-03T16:44:12.236Z,9.00
2023-03-03T16:47:18.384Z,9.00
2023-03-03T16:50:21.713Z,8.40
2023-03-03T16:53:39.439Z,8.10
2023-03-03T16:56:33.890Z,7.90
2023-03-03T16:59:57.759Z,7.80
2023-03-03T17:03:17.523Z,7.70
2023-03-03T17:06:21.209Z,7.60
2023-03-03T17:09:34.588Z,7.30
2023-03-03T17:12:34.786Z,7.10
2023-03-03T17:16:09.064Z,7.10
2023-03-03T17:19:24.876Z,6.80
2023-03-03T17:22:29.195Z,6.50
2023-03-03T17:25:14.364Z,6.50
2023-03-03T17:28:26.026Z,6.50
2023-03-03T17:31:47.008Z,7.70
2023-03-03T17:34:44.423Z,7.80
2023-03-03T17:37:35.298Z,7.60
2023-03-03T17:40:27.250Z,7.30
2023-03-03T17:43:36.566Z,7.30
2023-03-03T17:46:34.490Z,7.10
2023-03-03T17:49:25.681Z,7.00
2023-03-03T17:52:28.601Z,6.90
2023-03-03T17:55:39.509Z,6.80
2023-03-03T17:58:50.468Z,6.80
2023-03-03T18:02:02.718Z,6.70
2023-03-03T18:05:18.314Z,6.60
2023-03-03T18:08:27.041Z,6.60
2023-03-03T18:11:29.723Z,6.50
2023-03-03T18:14:26.781Z,6.40
2023-03-03T18:17:30.855Z,6.20
2023-03-03T18:20:38.591Z,6.10
2023-03-03T18:23:41.665Z,6.10
2023-03-03T18:26:29.711Z,6.10
2023-03-03T18:29:18.864Z,6.10
2023-03-03T18:32:18.016Z,5.90
2023-03-03T18:35:30.324Z,5.90
2023-03-03T18:38:15.367Z,5.90
2023-03-03T18:41:03.466Z,5.80
2023-03-03T18:43:53.799Z,5.80
2023-03-03T18:46:38.953Z,5.80
2023-03-03T18:49:49.144Z,5.80
2023-03-03T18:52:35.108Z,5.70
2023-03-03T18:55:26.016Z,5.60
2023-03-03T18:58:14.095Z,5.70
2023-03-03T19:01:08.201Z,5.70
2023-03-03T19:03:53.372Z,5.60
2023-03-03T19:06:38.791Z,5.60
2023-03-03T19:09:45.086Z,5.60
2023-03-03T19:12:47.765Z,5.50
2023-03-03T19:15:33.628Z,5.50
2023-03-03T19:18:21.064Z,5.40
2023-03-03T19:21:20.029Z,5.30
2023-03-03T19:24:27.325Z,5.30
2023-03-03T19:27:37.089Z,5.20
2023-03-03T19:30:58.123Z,5.10
2023-03-03T19:33:57.149Z,5.10
2023-03-03T19:36:54.478Z,5.20
2023-03-03T19:40:12.064Z,5.20
2023-03-03T19:43:21.804Z,5.00
2023-03-03T19:46:22.920Z,4.70
2023-03-03T19:49:37.452Z,4.80
2023-03-03T19:52:29.899Z,4.50
2023-03-03T19:55:22.003Z,4.60
2023-03-03T19:58:42.968Z,4.60
2023-03-03T20:01:46.876Z,4.40
2023-03-03T20:04:39.606Z,4.30
2023-03-03T20:07:24.720Z,4.30
2023-03-03T20:10:16.066Z,4.40
2023-03-03T20:13:39.096Z,4.30
2023-03-03T20:16:42.838Z,4.30
2023-03-03T20:19:54.890Z,4.40
2023-03-03T20:23:05.375Z,4.40
2023-03-03T20:26:00.753Z,4.50
2023-03-03T20:29:21.026Z,4.70
2023-03-03T20:32:27.110Z,4.50
2023-03-03T20:35:28.493Z,4.20
2023-03-03T20:38:47.358Z,4.00
2023-03-03T20:42:05.777Z,3.80
2023-03-03T20:45:04.246Z,3.90
2023-03-03T20:47:56.505Z,4.00
2023-03-03T20:51:02.358Z,4.10
2023-03-03T20:54:07.232Z,4.10
2023-03-03T20:57:46.892Z,4.10
2023-03-03T21:01:11.290Z,4.20
2023-03-03T21:04:16.665Z,4.20
2023-03-03T21:07:03.855Z,4.20
2023-03-03T21:09:49.293Z,4.10
2023-03-03T21:12:34.847Z,4.10
2023-03-03T21:15:26.311Z,4.10
2023-03-03T21:18:24.158Z,4.00
2023-03-03T21:21:09.235Z,4.00
2023-03-03T21:23:54.796Z,3.90
2023-03-03T21:26:57.800Z,3.90
2023-03-03T21:29:42.922Z,3.90
2023-03-03T21:32:41.813Z,3.80
2023-03-03T21:35:27.223Z,3.80
2023-03-03T21:38:32.574Z,3.80
2023-03-03T21:41:18.888Z,3.80
2023-03-03T21:44:44.021Z,3.80
2023-03-03T21:47:29.457Z,3.70
2023-03-03T21:50:14.910Z,3.80
2023-03-03T21:53:00.365Z,3.70
2023-03-03T21:55:49.552Z,3.80
2023-03-03T21:58:34.802Z,3.80
2023-03-03T22:01:20.414Z,3.80
2023-03-03T22:04:05.897Z,3.70
2023-03-03T22:06:52.728Z,3.60
2023-03-03T22:09:38.672Z,3.60
2023-03-03T22:12:24.063Z,3.60
2023-03-03T22:15:09.832Z,3.60
2023-03-03T22:17:56.323Z,3.50
2023-03-03T22:20:41.580Z,3.50
2023-03-03T22:23:26.640Z,3.50
2023-03-03T22:26:12.013Z,3.50
2023-03-03T22:28:57.434Z,3.50
2023-03-03T22:31:42.867Z,3.40
2023-03-03T22:34:28.609Z,3.40
2023-03-03T22:37:13.942Z,3.40
2023-03-03T22:39:59.299Z,3.30
2023-03-03T22:42:44.816Z,3.30
2023-03-03T22:45:30.154Z,3.30
2023-03-03T22:48:15.526Z,3.30
2023-03-03T22:51:00.986Z,3.20
2023-03-03T22:53:46.308Z,3.20
2023-03-03T22:56:31.790Z,3.00
2023-03-03T22:59:17.330Z,3.00
2023-03-03T23:02:02.962Z,3.10
2023-03-03T23:04:48.060Z,3.00
2023-03-03T23:07:34.824Z,3.00
2023-03-03T23:10:20.177Z,3.00
2023-03-03T23:13:05.607Z,3.00
2023-03-03T23:15:51.179Z,3.00
2023-03-03T23:18:36.330Z,3.00
2023-03-03T23:21:21.809Z,3.00
2023-03-03T23:24:07.577Z,3.00
2023-03-03T23:26:56.738Z,2.90
2023-03-03T23:29:42.063Z,2.90
2023-03-03T23:32:28.044Z,2.90
2023-03-03T23:35:13.724Z,2.90
2023-03-03T23:37:59.138Z,2.80
2023-03-03T23:40:46.775Z,2.80
2023-03-03T23:43:32.010Z,2.80
2023-03-03T23:46:17.533Z,2.80
2023-03-03T23:49:02.830Z,2.80
2023-03-03T23:51:48.255Z,2.80
2023-03-03T23:54:33.910Z,2.70
2023-03-03T23:57:19.579Z,2.70
